Time;durP1;ratioP1;P1;durP2;ratioP2;P2;SDS_P1;SDS_P2;PMS_P1;PMS_P2;Temp;Humidity;BMP_temperature;BMP_pressure;BME280_temperature;BME280_humidity;BME280_pressure;Samples;Min_cycle;Max_cycle;Signal;HPM_P1;HPM_P2
2022/07/13 00:00:03;;;;;;;;;;;;;;;12.18;71.44;95702.72;5116493;28;962;-51
2022/07/13 00:02:29;;;;;;;;;;;;;;;12.13;71.74;95702.38;5116463;28;1021;-50
2022/07/13 00:04:55;;;;;;;;;;;;;;;12.28;70.82;95704.31;5098263;28;984;-51
2022/07/13 00:07:21;;;;;;;;;;;;;;;12.31;71.25;95719.25;5116342;28;927;-50
2022/07/13 00:09:47;;;;;;;;;;;;;;;12.54;71.09;95714.19;5116322;28;983;-51
2022/07/13 00:12:13;;;;;;;;;;;;;;;12.78;69.63;95707.25;5116329;27;1041;-51
2022/07/13 00:14:40;;;;;;;;;;;;;;;12.34;70.58;95710.88;5115182;28;1902;-51
2022/07/13 00:17:06;;;;;;;;;;;;;;;12.34;70.17;95718.09;5116044;28;1183;-51
2022/07/13 00:19:32;;;;;;;;;;;;;;;12.36;70.89;95716.94;5116013;28;1223;-51
2022/07/13 00:21:58;;;;;;;;;;;;;;;12.36;71.36;95718.78;5116373;28;966;-51
2022/07/13 00:24:24;;;;;;;;;;;;;;;12.57;70.26;95719.22;5115962;28;1096;-51
2022/07/13 00:26:50;;;;;;;;;;;;;;;12.53;70.37;95725.09;5116172;28;1040;-51
2022/07/13 00:29:16;;;;;;;;;;;;;;;12.22;71.47;95726.41;5115773;28;1996;-50
2022/07/13 00:31:42;;;;;;;;;;;;;;;12.09;71.72;95725.97;5115867;28;1033;-50
2022/07/13 00:34:08;;;;;;;;;;;;;;;12.14;71.95;95729.03;5115629;28;1906;-51
2022/07/13 00:36:35;;;;;;;;;;;;;;;12.06;72.28;95728.97;5097925;28;1079;-51
2022/07/13 00:39:01;;;;;;;;;;;;;;;11.91;72.70;95734.03;5097578;28;964;-50
2022/07/13 00:41:27;;;;;;;;;;;;;;;11.94;72.65;95723.00;5115723;28;1068;-51
2022/07/13 00:44:04;;;;;;;;;;;;;;;11.94;72.26;95730.22;5101200;28;1157;-51
2022/07/13 00:46:31;;;;;;;;;;;;;;;11.91;72.77;95721.50;5095549;28;1079;-51
2022/07/13 00:48:58;;;;;;;;;;;;;;;11.96;72.26;95723.69;5095034;28;1041;-51
2022/07/13 00:51:24;;;;;;;;;;;;;;;11.67;73.00;95724.78;5077254;28;958;-51
2022/07/13 00:53:50;;;;;;;;;;;;;;;11.66;73.51;95722.22;5077073;28;2014;-51
2022/07/13 00:56:16;;;;;;;;;;;;;;;11.78;72.92;95707.63;5095050;28;1053;-51
2022/07/13 00:58:43;;;;;;;;;;;;;;;11.84;72.97;95709.69;5094752;28;1072;-51
2022/07/13 01:01:09;;;;;;;;;;;;;;;11.71;73.29;95717.28;5094825;28;1020;-51
2022/07/13 01:03:35;;;;;;;;;;;;;;;11.60;73.27;95714.81;5095086;28;974;-51
2022/07/13 01:06:02;;;;;;;;;;;;;;;11.53;74.05;95707.41;5094812;28;1070;-51
2022/07/13 01:08:29;;;;;;;;;;;;;;;11.60;73.77;95706.78;5076959;28;1020;-51
2022/07/13 01:10:56;;;;;;;;;;;;;;;11.63;73.49;95707.31;5094673;28;1033;-51
2022/07/13 01:13:22;;;;;;;;;;;;;;;11.56;73.47;95700.91;5094585;28;1914;-51
2022/07/13 01:15:48;;;;;;;;;;;;;;;11.57;73.71;95697.19;5094842;28;1026;-51
2022/07/13 01:18:15;;;;;;;;;;;;;;;11.76;73.01;95693.53;5094583;28;1017;-51
2022/07/13 01:20:41;;;;;;;;;;;;;;;11.68;72.89;95698.81;5094451;28;3097;-51
2022/07/13 01:23:09;;;;;;;;;;;;;;;11.61;73.60;95692.38;5094617;28;986;-51
2022/07/13 01:25:36;;;;;;;;;;;;;;;11.48;73.81;95701.66;5094289;28;1145;-50
2022/07/13 01:28:02;;;;;;;;;;;;;;;11.23;74.64;95703.28;5094347;28;917;-51
2022/07/13 01:30:28;;;;;;;;;;;;;;;11.33;74.44;95703.19;5094238;28;1044;-50
2022/07/13 01:32:54;;;;;;;;;;;;;;;11.51;73.89;95701.38;5094255;28;1913;-51
2022/07/13 01:35:21;;;;;;;;;;;;;;;11.28;74.34;95708.16;5094011;28;1005;-51
2022/07/13 01:37:47;;;;;;;;;;;;;;;11.01;75.34;95712.56;5094432;28;1049;-51
2022/07/13 01:40:14;;;;;;;;;;;;;;;11.06;75.25;95702.25;5094110;28;1032;-51
2022/07/13 01:42:47;;;;;;;;;;;;;;;11.26;74.46;95702.13;5098138;28;1178;-51
2022/07/13 01:45:15;;;;;;;;;;;;;;;11.02;75.23;95716.94;5114229;28;1087;-51
2022/07/13 01:47:42;;;;;;;;;;;;;;;11.13;74.66;95705.16;5114690;28;1000;-50
2022/07/13 01:50:09;;;;;;;;;;;;;;;11.48;73.35;95708.88;5114294;28;1020;-50
2022/07/13 01:52:36;;;;;;;;;;;;;;;11.50;73.42;95707.72;5114290;28;1988;-51
2022/07/13 01:55:02;;;;;;;;;;;;;;;11.45;73.44;95710.00;5114056;28;1029;-51
2022/07/13 01:57:28;;;;;;;;;;;;;;;11.11;74.93;95704.47;5114283;28;1060;-51
2022/07/13 02:00:03;;;;;;;;;;;;;;;10.84;75.73;95708.00;5114283;28;961;-51
2022/07/13 02:02:29;;;;;;;;;;;;;;;10.97;75.75;95707.66;5114406;28;971;-51
2022/07/13 02:04:55;;;;;;;;;;;;;;;11.04;75.47;95714.94;5095820;28;965;-51
2022/07/13 02:07:22;;;;;;;;;;;;;;;11.23;74.52;95707.75;5114157;28;946;-51
2022/07/13 02:09:48;;;;;;;;;;;;;;;11.19;74.68;95707.22;5113869;28;1166;-51
2022/07/13 02:12:15;;;;;;;;;;;;;;;11.27;74.26;95703.81;5114234;28;1044;-51
2022/07/13 02:14:41;;;;;;;;;;;;;;;10.90;75.37;95710.09;5114080;28;1979;-51
2022/07/13 02:17:07;;;;;;;;;;;;;;;10.58;76.48;95708.69;5095982;28;962;-51
2022/07/13 02:19:33;;;;;;;;;;;;;;;10.53;76.79;95709.13;5113959;28;1095;-51
2022/07/13 02:21:59;;;;;;;;;;;;;;;10.57;76.33;95715.03;5095811;28;1087;-51
2022/07/13 02:24:25;;;;;;;;;;;;;;;10.89;75.34;95711.94;5113956;28;972;-51
2022/07/13 02:26:51;;;;;;;;;;;;;;;11.11;74.26;95707.13;5113686;28;1025;-51
2022/07/13 02:29:18;;;;;;;;;;;;;;;11.02;74.49;95714.25;5113945;28;1060;-51
2022/07/13 02:31:44;;;;;;;;;;;;;;;10.97;74.96;95715.69;5095585;28;1032;-51
2022/07/13 02:34:10;;;;;;;;;;;;;;;10.99;74.67;95717.22;5095558;28;1989;-51
2022/07/13 02:36:36;;;;;;;;;;;;;;;10.98;75.14;95709.34;5113060;28;1020;-50
2022/07/13 02:39:03;;;;;;;;;;;;;;;10.99;74.98;95711.03;5113636;28;996;-51
2022/07/13 02:41:29;;;;;;;;;;;;;;;10.96;75.15;95704.13;5113528;28;1051;-51
2022/07/13 02:43:55;;;;;;;;;;;;;;;10.96;75.11;95706.81;5081364;28;1182;-51
2022/07/13 02:46:21;;;;;;;;;;;;;;;10.78;75.32;95706.78;5093229;28;961;-51
2022/07/13 02:48:47;;;;;;;;;;;;;;;10.62;75.59;95720.75;5093288;28;1028;-51
2022/07/13 02:51:13;;;;;;;;;;;;;;;10.67;76.27;95709.66;5075153;28;1060;-51
2022/07/13 02:53:40;;;;;;;;;;;;;;;10.71;75.84;95713.69;5093190;28;1979;-51
2022/07/13 02:56:06;;;;;;;;;;;;;;;10.67;76.00;95713.16;5092899;28;1084;-51
2022/07/13 02:58:32;;;;;;;;;;;;;;;10.68;75.56;95722.88;5093439;28;1084;-50
2022/07/13 03:00:58;;;;;;;;;;;;;;;10.77;75.45;95722.97;5093019;28;1072;-51
2022/07/13 03:03:24;;;;;;;;;;;;;;;10.77;75.55;95720.28;5075437;28;954;-50
2022/07/13 03:05:51;;;;;;;;;;;;;;;10.90;75.23;95721.63;5092891;28;1082;-51
2022/07/13 03:08:17;;;;;;;;;;;;;;;10.47;75.51;95723.09;5093049;28;1007;-51
2022/07/13 03:10:43;;;;;;;;;;;;;;;10.09;77.04;95724.00;5075049;28;1016;-51
2022/07/13 03:13:09;;;;;;;;;;;;;;;10.14;77.68;95711.06;5093177;28;1898;-51
2022/07/13 03:15:35;;;;;;;;;;;;;;;10.69;75.91;95710.34;5093038;28;1060;-51
2022/07/13 03:18:01;;;;;;;;;;;;;;;10.81;75.13;95708.28;5074954;28;1137;-51
2022/07/13 03:20:28;;;;;;;;;;;;;;;10.74;75.86;95711.56;5092913;28;1211;-51
2022/07/13 03:22:54;;;;;;;;;;;;;;;10.58;76.76;95714.03;5093318;28;1099;-51
2022/07/13 03:25:20;;;;;;;;;;;;;;;10.54;76.63;95708.13;5092887;28;996;-51
2022/07/13 03:27:46;;;;;;;;;;;;;;;10.67;75.89;95710.47;5075060;28;1057;-50
2022/07/13 03:30:12;;;;;;;;;;;;;;;10.74;76.59;95718.75;5075154;28;1053;-50
2022/07/13 03:32:38;;;;;;;;;;;;;;;10.61;76.36;95716.44;5092827;28;1906;-50
2022/07/13 03:35:05;;;;;;;;;;;;;;;10.94;75.53;95714.97;5092789;28;1056;-51
2022/07/13 03:37:31;;;;;;;;;;;;;;;11.02;75.48;95722.28;5074836;28;1045;-51
2022/07/13 03:39:57;;;;;;;;;;;;;;;11.11;75.62;95715.16;5092921;28;964;-50
2022/07/13 03:42:23;;;;;;;;;;;;;;;11.23;75.61;95718.47;5094292;28;1158;-51
2022/07/13 03:44:49;;;;;;;;;;;;;;;11.40;75.33;95725.69;5113529;28;1008;-51
2022/07/13 03:47:15;;;;;;;;;;;;;;;11.60;74.89;95725.53;5094952;28;1043;-51
2022/07/13 03:49:41;;;;;;;;;;;;;;;11.61;74.72;95721.84;5115818;28;1021;-51
2022/07/13 03:52:07;;;;;;;;;;;;;;;11.61;73.24;95719.16;5116621;28;1053;-51
2022/07/13 03:54:33;;;;;;;;;;;;;;;11.53;73.79;95722.63;5116649;28;1907;-51
2022/07/13 03:56:59;;;;;;;;;;;;;;;11.49;75.01;95727.44;5116526;28;1080;-51
2022/07/13 03:59:25;;;;;;;;;;;;;;;11.59;75.26;95730.06;5116620;28;1020;-50
2022/07/13 04:01:51;;;;;;;;;;;;;;;11.86;75.21;95728.28;5116453;28;1024;-51
2022/07/13 04:04:18;;;;;;;;;;;;;;;11.89;74.52;95731.53;5116260;28;1860;-51
2022/07/13 04:06:44;;;;;;;;;;;;;;;11.76;74.74;95743.59;5116378;28;1087;-51
2022/07/13 04:09:10;;;;;;;;;;;;;;;12.10;74.38;95733.00;5116323;28;942;-51
2022/07/13 04:11:36;;;;;;;;;;;;;;;12.41;73.90;95732.56;5116305;28;1852;-51
2022/07/13 04:14:03;;;;;;;;;;;;;;;12.60;73.38;95726.97;5116249;28;1992;-51
2022/07/13 04:16:29;;;;;;;;;;;;;;;12.69;73.27;95726.00;5116431;28;1032;-51
2022/07/13 04:18:55;;;;;;;;;;;;;;;12.69;73.57;95717.97;5098085;28;1373;-51
2022/07/13 04:21:21;;;;;;;;;;;;;;;12.83;72.58;95729.94;5116205;28;1063;-50
2022/07/13 04:23:49;;;;;;;;;;;;;;;13.01;71.68;95732.53;5115902;28;1146;-51
2022/07/13 04:26:15;;;;;;;;;;;;;;;13.16;71.06;95740.78;5098063;28;1009;-50
2022/07/13 04:28:41;;;;;;;;;;;;;;;13.40;69.92;95753.47;5115972;28;1036;-51
2022/07/13 04:31:07;;;;;;;;;;;;;;;13.66;66.81;95745.31;5098131;28;953;-51
2022/07/13 04:33:33;;;;;;;;;;;;;;;13.85;65.90;95752.22;5115909;28;2002;-51
2022/07/13 04:35:59;;;;;;;;;;;;;;;13.97;67.01;95744.66;5097724;28;1064;-50
2022/07/13 04:38:26;;;;;;;;;;;;;;;14.21;65.78;95751.06;5097682;28;976;-51
2022/07/13 04:40:52;;;;;;;;;;;;;;;14.31;65.24;95746.34;5115932;28;1044;-51
2022/07/13 04:43:18;;;;;;;;;;;;;;;14.48;65.38;95755.22;5088278;28;1229;-51
2022/07/13 04:45:44;;;;;;;;;;;;;;;14.55;64.29;95750.84;5095393;28;1189;-51
2022/07/13 04:48:10;;;;;;;;;;;;;;;14.79;64.81;95749.13;5077303;28;1084;-51
2022/07/13 04:50:36;;;;;;;;;;;;;;;14.82;64.90;95749.63;5077397;28;1017;-51
2022/07/13 04:53:03;;;;;;;;;;;;;;;14.80;64.78;95756.22;5094880;28;2067;-51
2022/07/13 04:55:29;;;;;;;;;;;;;;;14.99;63.57;95750.41;5095273;28;1063;-51
2022/07/13 04:57:56;;;;;;;;;;;;;;;15.05;62.80;95750.75;5095287;28;952;-51
2022/07/13 05:00:23;;;;;;;;;;;;;;;15.25;63.81;95751.16;5094594;28;1068;-50
2022/07/13 05:02:49;;;;;;;;;;;;;;;15.38;62.97;95754.94;5094905;28;1113;-51
2022/07/13 05:05:15;;;;;;;;;;;;;;;15.39;61.34;95761.19;5077005;28;995;-51
2022/07/13 05:07:41;;;;;;;;;;;;;;;15.49;62.51;95764.50;5094671;28;1019;-51
2022/07/13 05:10:07;;;;;;;;;;;;;;;15.72;61.84;95759.13;5077089;28;967;-52
2022/07/13 05:12:37;;;;;;;;;;;;;;;15.91;61.15;95757.88;5094770;28;1909;-51
2022/07/13 05:15:03;;;;;;;;;;;;;;;15.94;60.68;95759.38;5094678;28;1147;-51
2022/07/13 05:17:30;;;;;;;;;;;;;;;16.07;61.20;95756.06;5094711;28;1017;-51
2022/07/13 05:19:56;;;;;;;;;;;;;;;16.07;61.73;95751.53;5094920;28;1190;-51
2022/07/13 05:22:22;;;;;;;;;;;;;;;16.28;60.82;95744.63;5094364;28;969;-51
2022/07/13 05:24:48;;;;;;;;;;;;;;;17.05;57.80;95747.06;5094562;28;1036;-51
2022/07/13 05:27:14;;;;;;;;;;;;;;;18.01;55.27;95746.97;5094641;28;1025;-51
2022/07/13 05:29:40;;;;;;;;;;;;;;;18.50;54.43;95751.59;5094249;28;2054;-51
2022/07/13 05:32:06;;;;;;;;;;;;;;;18.16;54.38;95746.91;5094450;28;954;-51
2022/07/13 05:34:32;;;;;;;;;;;;;;;17.83;56.05;95747.41;5093997;28;1979;-51
2022/07/13 05:36:58;;;;;;;;;;;;;;;17.72;56.64;95748.72;5094301;28;1017;-51
2022/07/13 05:39:24;;;;;;;;;;;;;;;17.72;57.17;95746.03;5094338;28;964;-51
2022/07/13 05:41:50;;;;;;;;;;;;;;;17.21;58.77;95750.59;5076319;28;1010;-51
2022/07/13 05:44:16;;;;;;;;;;;;;;;17.00;60.54;95748.63;5111531;28;1229;-51
2022/07/13 05:46:42;;;;;;;;;;;;;;;16.81;60.57;95750.84;5114421;28;1112;-51
2022/07/13 05:49:08;;;;;;;;;;;;;;;16.55;58.21;95746.72;5114327;28;1041;-52
2022/07/13 05:51:34;;;;;;;;;;;;;;;16.47;61.55;95754.91;5114420;28;1023;-52
2022/07/13 05:54:01;;;;;;;;;;;;;;;16.50;62.18;95750.97;5114282;28;1902;-52
2022/07/13 05:56:27;;;;;;;;;;;;;;;16.58;61.30;95756.31;5114379;28;1969;-50
2022/07/13 05:58:53;;;;;;;;;;;;;;;16.96;60.64;95757.13;5114275;28;1034;-51
2022/07/13 06:01:19;;;;;;;;;;;;;;;17.12;59.59;95752.56;5114185;28;1044;-51
2022/07/13 06:03:45;;;;;;;;;;;;;;;17.27;57.74;95749.84;5096166;28;961;-51
2022/07/13 06:06:11;;;;;;;;;;;;;;;17.42;59.09;95747.97;5113815;28;1037;-51
2022/07/13 06:08:38;;;;;;;;;;;;;;;17.66;58.15;95746.78;5114222;28;966;-51
2022/07/13 06:11:04;;;;;;;;;;;;;;;17.79;58.63;95745.25;5113468;28;973;-51
2022/07/13 06:13:30;;;;;;;;;;;;;;;17.91;58.02;95743.75;5113982;28;1910;-51
2022/07/13 06:15:57;;;;;;;;;;;;;;;18.14;57.11;95735.44;5114019;28;910;-51
2022/07/13 06:18:23;;;;;;;;;;;;;;;18.32;58.37;95733.09;5113658;28;1273;-51
2022/07/13 06:20:49;;;;;;;;;;;;;;;18.50;56.52;95738.03;5113956;28;1003;-51
2022/07/13 06:23:16;;;;;;;;;;;;;;;18.69;57.67;95728.41;5095589;28;1070;-51
2022/07/13 06:25:46;;;;;;;;;;;;;;;18.85;56.45;95727.28;5114162;28;1032;-51
2022/07/13 06:28:12;;;;;;;;;;;;;;;19.14;55.34;95729.94;5113746;28;988;-51
2022/07/13 06:30:38;;;;;;;;;;;;;;;19.25;54.28;95729.38;5113994;28;1033;-51
2022/07/13 06:33:05;;;;;;;;;;;;;;;19.33;54.91;95717.53;5113664;28;1918;-51
2022/07/13 06:35:31;;;;;;;;;;;;;;;19.50;55.42;95718.84;5113611;28;1041;-51
2022/07/13 06:37:58;;;;;;;;;;;;;;;19.68;55.00;95719.13;5113979;28;999;-51
2022/07/13 06:40:24;;;;;;;;;;;;;;;19.81;53.66;95723.78;5112981;28;1020;-51
2022/07/13 06:42:50;;;;;;;;;;;;;;;19.96;53.37;95723.59;5108475;28;1181;-51
2022/07/13 06:45:16;;;;;;;;;;;;;;;20.16;54.58;95722.78;5093078;28;1033;-50
2022/07/13 06:47:42;;;;;;;;;;;;;;;20.36;53.92;95712.78;5093423;28;1885;-51
2022/07/13 06:50:09;;;;;;;;;;;;;;;20.40;53.09;95710.50;5093026;28;1017;-50
2022/07/13 06:52:37;;;;;;;;;;;;;;;20.47;51.75;95709.44;5093563;28;991;-50
2022/07/13 06:55:04;;;;;;;;;;;;;;;20.45;50.05;95711.53;5075341;28;992;-50
2022/07/13 06:57:30;;;;;;;;;;;;;;;20.45;49.61;95713.41;5093387;28;1014;-49
2022/07/13 06:59:56;;;;;;;;;;;;;;;20.55;50.78;95715.72;5093053;28;1941;-50
2022/07/13 07:02:23;;;;;;;;;;;;;;;20.51;52.03;95709.00;5093161;28;999;-49
2022/07/13 07:04:49;;;;;;;;;;;;;;;20.71;51.53;95707.16;5093089;28;1026;-50
2022/07/13 07:07:15;;;;;;;;;;;;;;;20.88;49.11;95714.88;5093078;28;1862;-49
2022/07/13 07:09:41;;;;;;;;;;;;;;;21.10;50.05;95712.75;5092976;28;1103;-49
2022/07/13 07:12:07;;;;;;;;;;;;;;;21.10;48.18;95710.03;5093212;28;1034;-50
2022/07/13 07:14:33;;;;;;;;;;;;;;;21.25;48.48;95705.16;5092969;28;1910;-50
2022/07/13 07:17:02;;;;;;;;;;;;;;;21.19;48.21;95700.56;5093091;28;1064;-49
2022/07/13 07:19:28;;;;;;;;;;;;;;;21.29;50.29;95702.84;5092704;28;1250;-50
2022/07/13 07:21:54;;;;;;;;;;;;;;;21.26;49.51;95702.19;5093044;28;1035;-50
2022/07/13 07:24:21;;;;;;;;;;;;;;;21.41;50.08;95710.09;5096866;28;950;-50
2022/07/13 07:26:47;;;;;;;;;;;;;;;21.66;47.62;95698.50;5097035;28;1033;-50
2022/07/13 07:29:14;;;;;;;;;;;;;;;21.72;47.84;95697.66;5096550;28;1092;-50
2022/07/13 07:31:40;;;;;;;;;;;;;;;21.61;47.17;95701.91;5096830;28;1008;-49
2022/07/13 07:34:07;;;;;;;;;;;;;;;21.80;47.76;95697.41;5096221;28;1979;-50
2022/07/13 07:36:32;;;;;;;;;;;;;;;22.10;46.51;95704.97;5096889;28;964;-49
2022/07/13 07:38:59;;;;;;;;;;;;;;;22.32;47.09;95700.00;5096842;28;966;-49
2022/07/13 07:41:25;;;;;;;;;;;;;;;22.52;45.17;95699.00;5096565;28;1017;-49
2022/07/13 07:43:51;;;;;;;;;;;;;;;22.71;46.14;95700.75;5110393;28;1209;-49
2022/07/13 07:46:17;;;;;;;;;;;;;;;22.72;43.49;95702.38;5116601;28;1059;-49
2022/07/13 07:48:43;;;;;;;;;;;;;;;22.72;44.75;95694.22;5117168;28;1013;-50
2022/07/13 07:51:09;;;;;;;;;;;;;;;22.88;45.25;95691.97;5116800;28;998;-50
2022/07/13 07:53:35;;;;;;;;;;;;;;;23.02;43.29;95688.06;5116838;28;1994;-50
2022/07/13 07:56:01;;;;;;;;;;;;;;;23.04;43.12;95693.31;5116575;28;1022;-50
2022/07/13 07:58:27;;;;;;;;;;;;;;;23.14;43.38;95693.63;5116808;28;1015;-49
2022/07/13 08:00:54;;;;;;;;;;;;;;;23.30;42.49;95700.38;5116642;28;960;-49
2022/07/13 08:03:20;;;;;;;;;;;;;;;23.32;41.60;95695.53;5116453;28;1021;-50
2022/07/13 08:05:48;;;;;;;;;;;;;;;23.41;40.86;95691.44;5116213;28;1016;-50
2022/07/13 08:08:14;;;;;;;;;;;;;;;23.52;41.51;95690.66;5116524;28;1040;-50
2022/07/13 08:10:40;;;;;;;;;;;;;;;23.61;43.20;95682.97;5116236;28;1004;-51
2022/07/13 08:13:06;;;;;;;;;;;;;;;23.57;41.09;95693.53;5116405;28;1906;-50
2022/07/13 08:15:33;;;;;;;;;;;;;;;23.25;41.71;95698.31;5098295;28;1032;-50
2022/07/13 08:17:59;;;;;;;;;;;;;;;23.29;41.25;95688.63;5116272;28;1056;-50
2022/07/13 08:20:26;;;;;;;;;;;;;;;23.27;41.49;95689.91;5116155;28;1250;-49
2022/07/13 08:22:52;;;;;;;;;;;;;;;22.84;40.59;95679.84;5116569;28;1090;-49
2022/07/13 08:25:18;;;;;;;;;;;;;;;22.56;40.84;95687.47;5116299;28;1036;-48
2022/07/13 08:27:44;;;;;;;;;;;;;;;22.30;41.15;95688.50;5116306;28;958;-49
2022/07/13 08:30:11;;;;;;;;;;;;;;;22.17;42.54;95685.84;5115840;28;1044;-50
2022/07/13 08:32:37;;;;;;;;;;;;;;;22.00;40.67;95674.66;5116017;28;1048;-50
2022/07/13 08:40:33;;;;;;;;;;;;;;;23.63;39.33;95671.84;5115924;28;1052;-49
2022/07/13 08:42:59;;;;;;;;;;;;;;;23.83;38.88;95674.31;5091094;28;1182;-50
2022/07/13 08:45:26;;;;;;;;;;;;;;;23.97;39.05;95671.16;5095476;28;1020;-50
2022/07/13 08:47:52;;;;;;;;;;;;;;;24.06;39.80;95679.03;5095500;28;1049;-49
2022/07/13 08:50:19;;;;;;;;;;;;;;;23.58;38.04;95669.78;5095353;28;1019;-49
2022/07/13 08:52:48;;;;;;;;;;;;;;;23.61;39.42;95673.97;5095195;28;1914;-49
2022/07/13 08:55:17;;;;;;;;;;;;;;;23.95;38.57;95675.19;5095083;28;1057;-49
2022/07/13 08:57:45;;;;;;;;;;;;;;;23.59;38.34;95683.22;5094907;28;1009;-49
2022/07/13 09:00:14;;;;;;;;;;;;;;;23.55;38.20;95684.72;5095201;28;976;-49
2022/07/13 09:02:42;;;;;;;;;;;;;;;23.47;37.67;95679.59;5095059;28;1036;-49
2022/07/13 09:05:11;;;;;;;;;;;;;;;23.08;38.13;95676.25;5094739;28;1063;-49
2022/07/13 09:07:39;;;;;;;;;;;;;;;23.26;37.76;95666.41;5094840;28;1001;-49
2022/07/13 09:10:07;;;;;;;;;;;;;;;23.68;38.08;95678.28;5094763;28;1102;-49
2022/07/13 09:12:36;;;;;;;;;;;;;;;23.95;37.14;95675.19;5094663;28;1000;-49
2022/07/13 09:15:06;;;;;;;;;;;;;;;24.18;37.54;95677.16;5094846;28;1979;-49
2022/07/13 09:17:36;;;;;;;;;;;;;;;24.38;37.16;95678.72;5094546;28;1915;-49
2022/07/13 09:20:14;;;;;;;;;;;;;;;24.55;36.36;95666.09;5096273;28;1149;-49
2022/07/13 09:22:52;;;;;;;;;;;;;;;24.68;36.79;95678.69;5094450;28;1139;-49
2022/07/13 09:25:25;;;;;;;;;;;;;;;24.04;36.76;95679.28;5094732;28;1017;-49
2022/07/13 09:27:54;;;;;;;;;;;;;;;23.50;36.79;95679.13;5094565;28;1060;-49
2022/07/13 09:30:24;;;;;;;;;;;;;;;23.03;37.06;95673.41;5094414;28;1088;-49
2022/07/13 09:32:53;;;;;;;;;;;;;;;23.22;37.20;95676.13;5094276;28;1910;-49
2022/07/13 09:35:41;;;;;;;;;;;;;;;23.78;37.08;95664.91;5094139;28;1056;-49
2022/07/13 09:38:26;;;;;;;;;;;;;;;23.95;35.69;95676.03;5094139;28;1045;-48
2022/07/13 09:40:55;;;;;;;;;;;;;;;23.65;37.03;95669.72;5076873;28;965;-49
2022/07/13 09:46:11;;;;;;;;;;;;;;;23.13;37.90;95667.41;5114764;28;1023;-49
2022/07/13 09:48:49;;;;;;;;;;;;;;;22.90;38.46;95665.34;5114604;28;1030;-49
2022/07/13 09:51:24;;;;;;;;;;;;;;;23.37;38.18;95671.97;5114953;28;929;-49
2022/07/13 09:53:55;;;;;;;;;;;;;;;23.61;37.76;95655.69;5114291;28;1906;-49
2022/07/13 09:56:26;;;;;;;;;;;;;;;23.64;38.45;95659.84;5114700;28;1075;-49
2022/07/13 09:58:55;;;;;;;;;;;;;;;23.48;38.37;95653.13;5114476;28;1027;-50
2022/07/13 10:01:25;;;;;;;;;;;;;;;23.23;37.43;95656.81;5114398;28;1060;-49
2022/07/13 10:03:54;;;;;;;;;;;;;;;23.22;38.13;95663.34;5114235;28;957;-49
2022/07/13 10:06:23;;;;;;;;;;;;;;;23.24;38.57;95665.81;5113954;28;974;-49
2022/07/13 10:08:54;;;;;;;;;;;;;;;23.67;37.83;95653.94;5114279;28;1052;-48
2022/07/13 10:11:25;;;;;;;;;;;;;;;24.06;37.38;95654.47;5114322;28;1028;-49
2022/07/13 10:13:55;;;;;;;;;;;;;;;24.37;37.50;95653.31;5114078;28;1909;-49
2022/07/13 10:16:28;;;;;;;;;;;;;;;24.54;36.54;95648.84;5114169;28;990;-49
2022/07/13 10:22:41;;;;;;;;;;;;;;;24.54;35.79;95639.81;4537838;27;2054;-49
2022/07/13 10:25:11;;;;;;;;;;;;;;;24.49;36.75;95645.97;5113933;28;1004;-50
2022/07/13 10:27:41;;;;;;;;;;;;;;;24.61;34.11;95636.97;5114054;28;1043;-50
2022/07/13 10:30:22;;;;;;;;;;;;;;;24.39;34.61;95639.44;5114014;28;1037;-50
2022/07/13 10:32:52;;;;;;;;;;;;;;;24.42;35.14;95638.97;5096388;28;1911;-50
2022/07/13 10:35:23;;;;;;;;;;;;;;;24.63;34.19;95634.84;5113545;28;1047;-50
2022/07/13 10:37:59;;;;;;;;;;;;;;;24.80;34.98;95626.75;5113689;28;1007;-50
2022/07/13 10:40:33;;;;;;;;;;;;;;;24.66;34.10;95624.28;5114109;28;1063;-50
2022/07/13 10:43:05;;;;;;;;;;;;;;;24.21;35.62;95622.06;5106583;28;1225;-50
2022/07/13 10:45:41;;;;;;;;;;;;;;;24.03;36.82;95617.50;5093565;28;1067;-49
2022/07/13 10:48:24;;;;;;;;;;;;;;;23.77;36.27;95632.34;5093169;28;1107;-50
2022/07/13 10:50:57;;;;;;;;;;;;;;;23.73;36.25;95625.69;5093423;28;1044;-49
2022/07/13 10:53:46;;;;;;;;;;;;;;;23.78;35.67;95623.13;5093127;28;1913;-50
2022/07/13 10:56:17;;;;;;;;;;;;;;;24.18;36.52;95611.59;5093341;28;1021;-50
2022/07/13 10:58:49;;;;;;;;;;;;;;;24.41;35.12;95607.22;5096281;28;1152;-50
2022/07/13 11:01:42;;;;;;;;;;;;;;;24.48;35.50;95608.78;5097586;28;1027;-50
2022/07/13 11:04:14;;;;;;;;;;;;;;;24.03;34.30;95606.56;5097038;28;1003;-50
2022/07/13 11:07:06;;;;;;;;;;;;;;;23.65;35.34;95610.47;5097262;28;1064;-50
2022/07/13 11:09:35;;;;;;;;;;;;;;;23.75;36.18;95605.31;5097427;28;957;-49
2022/07/13 11:12:19;;;;;;;;;;;;;;;24.19;35.59;95607.81;5097296;28;1036;-50
2022/07/13 11:14:49;;;;;;;;;;;;;;;24.65;36.25;95605.38;5096978;28;1910;-49
2022/07/13 11:17:18;;;;;;;;;;;;;;;24.59;35.82;95604.41;5097104;28;1043;-50
2022/07/13 11:19:50;;;;;;;;;;;;;;;24.64;35.79;95603.69;5079291;28;960;-50
2022/07/13 11:22:23;;;;;;;;;;;;;;;24.69;35.53;95601.91;5096908;28;1175;-50
2022/07/13 11:25:16;;;;;;;;;;;;;;;24.71;35.08;95596.19;5096948;28;1015;-49
2022/07/13 11:27:48;;;;;;;;;;;;;;;24.81;34.61;95593.69;5096889;28;1087;-50
2022/07/13 11:30:25;;;;;;;;;;;;;;;24.92;34.62;95592.00;5097016;28;1001;-50
2022/07/13 11:32:54;;;;;;;;;;;;;;;25.05;33.99;95590.91;5096781;28;1918;-50
2022/07/13 11:46:45;;;;;;;;;;;;;;;24.58;34.92;95586.34;4777032;27;1340178;-49
2022/07/13 11:49:13;;;;;;;;;;;;;;;24.91;35.33;95579.41;5152234;27;1075;-49
2022/07/13 11:51:41;;;;;;;;;;;;;;;25.11;33.17;95579.00;5152149;27;1127;-49
2022/07/13 11:54:08;;;;;;;;;;;;;;;25.24;33.67;95573.28;5152210;27;972;-49
2022/07/13 11:56:34;;;;;;;;;;;;;;;25.29;33.87;95576.13;5152352;27;1061;-49
2022/07/13 11:59:00;;;;;;;;;;;;;;;25.26;35.00;95579.34;5151985;27;960;-49
2022/07/13 12:01:28;;;;;;;;;;;;;;;24.93;33.10;95577.28;5151984;27;1984;-49
2022/07/13 12:03:54;;;;;;;;;;;;;;;24.85;34.92;95578.47;5151898;27;1087;-49
2022/07/13 12:06:26;;;;;;;;;;;;;;;25.02;33.77;95575.78;5151967;27;958;-49
2022/07/13 12:08:52;;;;;;;;;;;;;;;25.11;34.25;95573.53;5152019;27;1012;-49
2022/07/13 12:11:18;;;;;;;;;;;;;;;24.82;34.34;95575.38;5151939;27;1020;-49
2022/07/13 12:13:45;;;;;;;;;;;;;;;24.85;33.98;95566.69;5151850;27;1049;-49
2022/07/13 12:16:12;;;;;;;;;;;;;;;25.19;35.10;95564.09;5151638;27;1055;-49
2022/07/13 12:18:57;;;;;;;;;;;;;;;25.12;34.55;95583.41;5152030;27;996;-49
2022/07/13 12:21:23;;;;;;;;;;;;;;;25.00;34.63;95567.00;5151573;27;1914;-49
2022/07/13 12:23:49;;;;;;;;;;;;;;;25.05;33.55;95567.13;5151843;27;953;-49
2022/07/13 12:26:15;;;;;;;;;;;;;;;25.23;33.94;95563.41;5151542;27;969;-49
2022/07/13 12:28:42;;;;;;;;;;;;;;;25.27;34.15;95556.38;5151588;27;1264;-49
2022/07/13 12:31:08;;;;;;;;;;;;;;;25.23;33.55;95559.84;5151555;27;1015;-49
2022/07/13 12:33:39;;;;;;;;;;;;;;;25.16;34.04;95553.66;5151700;27;985;-49
2022/07/13 12:36:07;;;;;;;;;;;;;;;25.23;34.16;95554.34;5151145;27;1023;-49
2022/07/13 12:38:34;;;;;;;;;;;;;;;25.29;34.02;95553.41;5151528;27;1051;-49
2022/07/13 12:41:01;;;;;;;;;;;;;;;25.47;34.20;95555.94;5151088;27;1986;-49
2022/07/13 12:43:29;;;;;;;;;;;;;;;25.53;33.31;95567.81;5140520;27;1160;-49
2022/07/13 12:46:00;;;;;;;;;;;;;;;25.56;33.39;95555.56;5138886;27;1079;-49
2022/07/13 12:48:27;;;;;;;;;;;;;;;25.21;32.79;95548.28;5151468;27;987;-49
2022/07/13 12:51:02;;;;;;;;;;;;;;;25.07;33.77;95548.56;5151165;27;1018;-49
2022/07/13 12:53:47;;;;;;;;;;;;;;;25.08;33.64;95541.16;5144965;27;1043;-49
2022/07/13 12:56:17;;;;;;;;;;;;;;;24.62;34.44;95549.25;5137644;27;964;-49
2022/07/13 12:58:44;;;;;;;;;;;;;;;24.34;34.45;95548.06;5137433;27;1031;-49
2022/07/13 13:01:24;;;;;;;;;;;;;;;24.12;34.41;95549.72;5137285;27;2004;-49
2022/07/13 13:03:50;;;;;;;;;;;;;;;24.28;34.56;95548.16;5137270;27;1027;-49
2022/07/13 13:06:16;;;;;;;;;;;;;;;24.61;34.24;95546.78;5136533;27;1004;-49
2022/07/13 13:08:42;;;;;;;;;;;;;;;24.69;34.31;95547.22;5137156;27;1099;-49
2022/07/13 13:11:08;;;;;;;;;;;;;;;24.62;35.15;95548.41;5136937;27;1165;-50
2022/07/13 13:13:34;;;;;;;;;;;;;;;24.71;34.69;95544.25;5137155;27;976;-49
2022/07/13 13:16:00;;;;;;;;;;;;;;;24.90;34.62;95551.22;5136760;27;1036;-49
2022/07/13 13:18:26;;;;;;;;;;;;;;;25.04;34.39;95545.47;5136943;27;961;-49
2022/07/13 13:20:52;;;;;;;;;;;;;;;25.09;34.90;95546.41;5136637;27;968;-49
2022/07/13 13:23:18;;;;;;;;;;;;;;;25.12;34.65;95535.00;5136857;27;1979;-49
2022/07/13 13:25:44;;;;;;;;;;;;;;;25.18;35.35;95541.41;5136805;27;1031;-48